sensor_id;sensor_type;location;lat;lon;timestamp;temperature;humidity
27848;DHT22;15212;48.830;8.730;2024-02-14T00:01:33;4.10;99.90
27848;DHT22;15212;48.830;8.730;2024-02-14T00:04:04;4.10;99.90
27848;DHT22;15212;48.830;8.730;2024-02-14T00:06:37;4.20;99.90
27848;DHT22;15212;48.830;8.730;2024-02-14T00:09:06;4.20;99.90
27848;DHT22;15212;48.830;8.730;2024-02-14T00:11:34;4.20;99.90
27848;DHT22;15212;48.830;8.730;2024-02-14T00:14:03;4.20;99.90
27848;DHT22;15212;48.830;8.730;2024-02-14T00:16:32;4.20;99.90
27848;DHT22;15212;48.830;8.730;2024-02-14T00:19:00;4.30;99.90
27848;DHT22;15212;48.830;8.730;2024-02-14T00:21:29;4.30;99.90
27848;DHT22;15212;48.830;8.730;2024-02-14T00:23:58;4.40;99.90
27848;DHT22;15212;48.830;8.730;2024-02-14T00:26:26;4.50;99.90
27848;DHT22;15212;48.830;8.730;2024-02-14T00:28:55;4.50;99.90
27848;DHT22;15212;48.830;8.730;2024-02-14T00:31:23;4.60;99.90
27848;DHT22;15212;48.830;8.730;2024-02-14T00:33:51;4.70;99.90
27848;DHT22;15212;48.830;8.730;2024-02-14T00:36:20;4.70;99.90
27848;DHT22;15212;48.830;8.730;2024-02-14T00:38:48;4.70;99.90
27848;DHT22;15212;48.830;8.730;2024-02-14T00:41:17;4.70;99.90
27848;DHT22;15212;48.830;8.730;2024-02-14T00:43:46;4.70;99.90
27848;DHT22;15212;48.830;8.730;2024-02-14T00:46:17;4.70;99.90
27848;DHT22;15212;48.830;8.730;2024-02-14T00:48:45;4.70;99.90
27848;DHT22;15212;48.830;8.730;2024-02-14T00:51:14;4.70;99.90
27848;DHT22;15212;48.830;8.730;2024-02-14T00:53:42;4.70;99.90
27848;DHT22;15212;48.830;8.730;2024-02-14T00:56:10;4.70;99.90
27848;DHT22;15212;48.830;8.730;2024-02-14T00:58:39;4.70;99.90
27848;DHT22;15212;48.830;8.730;2024-02-14T01:01:07;4.80;99.90
27848;DHT22;15212;48.830;8.730;2024-02-14T01:03:36;4.80;99.90
27848;DHT22;15212;48.830;8.730;2024-02-14T01:06:04;4.90;99.90
27848;DHT22;15212;48.830;8.730;2024-02-14T01:08:33;4.90;99.90
27848;DHT22;15212;48.830;8.730;2024-02-14T01:11:02;4.90;99.90
27848;DHT22;15212;48.830;8.730;2024-02-14T01:13:31;4.90;99.90
27848;DHT22;15212;48.830;8.730;2024-02-14T01:15:59;4.90;99.90
27848;DHT22;15212;48.830;8.730;2024-02-14T01:18:28;4.90;99.90
27848;DHT22;15212;48.830;8.730;2024-02-14T01:20:57;4.80;99.90
27848;DHT22;15212;48.830;8.730;2024-02-14T01:23:27;4.80;99.90
27848;DHT22;15212;48.830;8.730;2024-02-14T01:25:55;4.70;99.90
27848;DHT22;15212;48.830;8.730;2024-02-14T01:28:23;4.70;99.90
27848;DHT22;15212;48.830;8.730;2024-02-14T01:30:52;4.70;99.90
27848;DHT22;15212;48.830;8.730;2024-02-14T01:33:20;4.70;99.90
27848;DHT22;15212;48.830;8.730;2024-02-14T01:35:49;4.70;99.90
27848;DHT22;15212;48.830;8.730;2024-02-14T01:38:17;4.70;99.90
27848;DHT22;15212;48.830;8.730;2024-02-14T01:40:46;4.70;99.90
27848;DHT22;15212;48.830;8.730;2024-02-14T01:43:15;4.80;99.90
27848;DHT22;15212;48.830;8.730;2024-02-14T01:45:43;4.80;99.90
27848;DHT22;15212;48.830;8.730;2024-02-14T01:48:12;4.70;99.90
27848;DHT22;15212;48.830;8.730;2024-02-14T01:50:42;4.70;99.90
27848;DHT22;15212;48.830;8.730;2024-02-14T01:53:11;4.70;99.90
27848;DHT22;15212;48.830;8.730;2024-02-14T01:55:40;4.60;99.90
27848;DHT22;15212;48.830;8.730;2024-02-14T01:58:09;4.60;99.90
27848;DHT22;15212;48.830;8.730;2024-02-14T02:00:37;4.50;99.90
27848;DHT22;15212;48.830;8.730;2024-02-14T02:03:07;4.40;99.90
27848;DHT22;15212;48.830;8.730;2024-02-14T02:05:35;4.40;99.90
27848;DHT22;15212;48.830;8.730;2024-02-14T02:08:03;4.30;99.90
27848;DHT22;15212;48.830;8.730;2024-02-14T02:10:34;4.30;99.90
27848;DHT22;15212;48.830;8.730;2024-02-14T02:13:04;4.30;99.90
27848;DHT22;15212;48.830;8.730;2024-02-14T02:15:32;4.30;99.90
27848;DHT22;15212;48.830;8.730;2024-02-14T02:18:02;4.20;99.90
27848;DHT22;15212;48.830;8.730;2024-02-14T02:20:32;4.20;99.90
27848;DHT22;15212;48.830;8.730;2024-02-14T02:23:01;4.20;99.90
27848;DHT22;15212;48.830;8.730;2024-02-14T02:25:30;4.10;99.90
27848;DHT22;15212;48.830;8.730;2024-02-14T02:27:58;4.00;99.90
27848;DHT22;15212;48.830;8.730;2024-02-14T02:30:26;4.00;99.90
27848;DHT22;15212;48.830;8.730;2024-02-14T02:32:55;3.90;99.90
27848;DHT22;15212;48.830;8.730;2024-02-14T02:35:24;3.80;99.90
27848;DHT22;15212;48.830;8.730;2024-02-14T02:37:52;3.80;99.90
27848;DHT22;15212;48.830;8.730;2024-02-14T02:40:20;3.70;99.90
27848;DHT22;15212;48.830;8.730;2024-02-14T02:42:49;3.70;99.90
27848;DHT22;15212;48.830;8.730;2024-02-14T02:45:18;3.70;99.90
27848;DHT22;15212;48.830;8.730;2024-02-14T02:47:46;3.70;99.90
27848;DHT22;15212;48.830;8.730;2024-02-14T02:50:16;3.70;99.90
27848;DHT22;15212;48.830;8.730;2024-02-14T02:52:46;3.70;99.90
27848;DHT22;15212;48.830;8.730;2024-02-14T02:55:15;3.70;99.90
27848;DHT22;15212;48.830;8.730;2024-02-14T02:57:44;3.80;99.90
27848;DHT22;15212;48.830;8.730;2024-02-14T03:00:13;3.80;99.90
27848;DHT22;15212;48.830;8.730;2024-02-14T03:02:42;3.80;99.90
27848;DHT22;15212;48.830;8.730;2024-02-14T03:05:13;3.80;99.90
27848;DHT22;15212;48.830;8.730;2024-02-14T03:07:45;3.90;99.90
27848;DHT22;15212;48.830;8.730;2024-02-14T03:10:15;3.80;99.90
27848;DHT22;15212;48.830;8.730;2024-02-14T03:12:50;3.80;99.90
27848;DHT22;15212;48.830;8.730;2024-02-14T03:15:18;3.80;99.90
27848;DHT22;15212;48.830;8.730;2024-02-14T03:17:47;3.80;99.90
27848;DHT22;15212;48.830;8.730;2024-02-14T03:20:15;3.80;99.90
27848;DHT22;15212;48.830;8.730;2024-02-14T03:22:45;3.80;99.90
27848;DHT22;15212;48.830;8.730;2024-02-14T03:25:16;3.90;99.90
27848;DHT22;15212;48.830;8.730;2024-02-14T03:27:45;3.90;99.90
27848;DHT22;15212;48.830;8.730;2024-02-14T03:30:19;3.90;99.90
27848;DHT22;15212;48.830;8.730;2024-02-14T03:32:49;3.90;99.90
27848;DHT22;15212;48.830;8.730;2024-02-14T03:35:19;3.90;99.90
27848;DHT22;15212;48.830;8.730;2024-02-14T03:37:49;3.90;99.90
27848;DHT22;15212;48.830;8.730;2024-02-14T03:40:20;3.80;99.90
27848;DHT22;15212;48.830;8.730;2024-02-14T03:42:48;3.90;99.90
27848;DHT22;15212;48.830;8.730;2024-02-14T03:45:18;3.80;99.90
27848;DHT22;15212;48.830;8.730;2024-02-14T03:47:47;3.90;99.90
27848;DHT22;15212;48.830;8.730;2024-02-14T03:50:16;3.80;99.90
27848;DHT22;15212;48.830;8.730;2024-02-14T03:52:44;3.80;99.90
27848;DHT22;15212;48.830;8.730;2024-02-14T03:55:13;3.80;99.90
27848;DHT22;15212;48.830;8.730;2024-02-14T03:57:43;3.80;99.90
27848;DHT22;15212;48.830;8.730;2024-02-14T04:00:13;3.70;99.90
27848;DHT22;15212;48.830;8.730;2024-02-14T04:02:42;3.70;99.90
27848;DHT22;15212;48.830;8.730;2024-02-14T04:05:11;3.60;99.90
27848;DHT22;15212;48.830;8.730;2024-02-14T04:07:39;3.50;99.90
27848;DHT22;15212;48.830;8.730;2024-02-14T04:10:09;3.50;99.90
27848;DHT22;15212;48.830;8.730;2024-02-14T04:12:38;3.50;99.90
27848;DHT22;15212;48.830;8.730;2024-02-14T04:15:07;3.50;99.90
27848;DHT22;15212;48.830;8.730;2024-02-14T04:17:36;3.50;99.90
27848;DHT22;15212;48.830;8.730;2024-02-14T04:20:05;3.50;99.90
27848;DHT22;15212;48.830;8.730;2024-02-14T04:22:34;3.50;99.90
27848;DHT22;15212;48.830;8.730;2024-02-14T04:25:02;3.40;99.90
27848;DHT22;15212;48.830;8.730;2024-02-14T04:27:31;3.40;99.90
27848;DHT22;15212;48.830;8.730;2024-02-14T04:30:01;3.30;99.90
27848;DHT22;15212;48.830;8.730;2024-02-14T04:32:29;3.30;99.90
27848;DHT22;15212;48.830;8.730;2024-02-14T04:34:58;3.20;99.90
27848;DHT22;15212;48.830;8.730;2024-02-14T04:37:27;3.20;99.90
27848;DHT22;15212;48.830;8.730;2024-02-14T04:39:56;3.20;99.90
27848;DHT22;15212;48.830;8.730;2024-02-14T04:42:24;3.20;99.90
27848;DHT22;15212;48.830;8.730;2024-02-14T04:44:53;3.20;99.90
27848;DHT22;15212;48.830;8.730;2024-02-14T04:47:21;3.20;99.90
27848;DHT22;15212;48.830;8.730;2024-02-14T04:49:49;3.30;99.90
27848;DHT22;15212;48.830;8.730;2024-02-14T04:52:18;3.30;99.90
27848;DHT22;15212;48.830;8.730;2024-02-14T04:54:46;3.30;99.90
27848;DHT22;15212;48.830;8.730;2024-02-14T04:57:14;3.40;99.90
27848;DHT22;15212;48.830;8.730;2024-02-14T04:59:44;3.40;99.90
27848;DHT22;15212;48.830;8.730;2024-02-14T05:02:13;3.40;99.90
27848;DHT22;15212;48.830;8.730;2024-02-14T05:04:41;3.40;99.90
27848;DHT22;15212;48.830;8.730;2024-02-14T05:07:10;3.40;99.90
27848;DHT22;15212;48.830;8.730;2024-02-14T05:09:38;3.50;99.90
27848;DHT22;15212;48.830;8.730;2024-02-14T05:12:06;3.50;99.90
27848;DHT22;15212;48.830;8.730;2024-02-14T05:14:38;3.60;99.90
27848;DHT22;15212;48.830;8.730;2024-02-14T05:17:07;3.60;99.90
27848;DHT22;15212;48.830;8.730;2024-02-14T05:19:36;3.60;99.90
27848;DHT22;15212;48.830;8.730;2024-02-14T05:22:04;3.60;99.90
27848;DHT22;15212;48.830;8.730;2024-02-14T05:24:32;3.60;99.90
27848;DHT22;15212;48.830;8.730;2024-02-14T05:27:03;3.60;99.90
27848;DHT22;15212;48.830;8.730;2024-02-14T05:29:32;3.70;99.90
27848;DHT22;15212;48.830;8.730;2024-02-14T05:32:00;3.80;99.90
27848;DHT22;15212;48.830;8.730;2024-02-14T05:34:28;3.80;99.90
27848;DHT22;15212;48.830;8.730;2024-02-14T05:36:57;3.90;99.90
27848;DHT22;15212;48.830;8.730;2024-02-14T05:39:25;3.90;99.90
27848;DHT22;15212;48.830;8.730;2024-02-14T05:41:54;3.90;99.90
27848;DHT22;15212;48.830;8.730;2024-02-14T05:44:22;4.00;99.90
27848;DHT22;15212;48.830;8.730;2024-02-14T05:46:52;4.00;99.90
27848;DHT22;15212;48.830;8.730;2024-02-14T05:49:22;4.00;99.90
27848;DHT22;15212;48.830;8.730;2024-02-14T05:51:51;4.10;99.90
27848;DHT22;15212;48.830;8.730;2024-02-14T05:54:20;4.10;99.90
27848;DHT22;15212;48.830;8.730;2024-02-14T05:56:48;4.10;99.90
27848;DHT22;15212;48.830;8.730;2024-02-14T05:59:16;4.20;99.90
27848;DHT22;15212;48.830;8.730;2024-02-14T06:01:45;4.20;99.90
27848;DHT22;15212;48.830;8.730;2024-02-14T06:04:13;4.20;99.90
27848;DHT22;15212;48.830;8.730;2024-02-14T06:06:41;4.20;99.90
27848;DHT22;15212;48.830;8.730;2024-02-14T06:09:10;4.30;99.90
27848;DHT22;15212;48.830;8.730;2024-02-14T06:11:38;4.30;99.90
27848;DHT22;15212;48.830;8.730;2024-02-14T06:14:08;4.30;99.90
27848;DHT22;15212;48.830;8.730;2024-02-14T06:16:36;4.30;99.90
27848;DHT22;15212;48.830;8.730;2024-02-14T06:19:05;4.40;99.90
27848;DHT22;15212;48.830;8.730;2024-02-14T06:21:33;4.40;99.90
27848;DHT22;15212;48.830;8.730;2024-02-14T06:24:02;4.40;99.90
27848;DHT22;15212;48.830;8.730;2024-02-14T06:26:33;4.50;99.90
27848;DHT22;15212;48.830;8.730;2024-02-14T06:29:01;4.40;99.90
27848;DHT22;15212;48.830;8.730;2024-02-14T06:31:30;4.40;99.90
27848;DHT22;15212;48.830;8.730;2024-02-14T06:33:58;4.40;99.90
27848;DHT22;15212;48.830;8.730;2024-02-14T06:36:27;4.40;99.90
27848;DHT22;15212;48.830;8.730;2024-02-14T06:38:55;4.40;99.90
27848;DHT22;15212;48.830;8.730;2024-02-14T06:41:23;4.40;99.90
27848;DHT22;15212;48.830;8.730;2024-02-14T06:43:52;4.40;99.90
27848;DHT22;15212;48.830;8.730;2024-02-14T06:46:20;4.50;99.90
27848;DHT22;15212;48.830;8.730;2024-02-14T06:48:49;4.60;99.90
27848;DHT22;15212;48.830;8.730;2024-02-14T06:51:17;4.70;99.90
27848;DHT22;15212;48.830;8.730;2024-02-14T06:53:46;4.80;99.90
27848;DHT22;15212;48.830;8.730;2024-02-14T06:56:15;4.90;99.90
27848;DHT22;15212;48.830;8.730;2024-02-14T06:58:43;4.80;99.90
27848;DHT22;15212;48.830;8.730;2024-02-14T07:01:12;4.80;99.90
27848;DHT22;15212;48.830;8.730;2024-02-14T07:03:42;4.80;99.90
27848;DHT22;15212;48.830;8.730;2024-02-14T07:06:13;4.80;99.90
27848;DHT22;15212;48.830;8.730;2024-02-14T07:08:42;4.80;99.90
27848;DHT22;15212;48.830;8.730;2024-02-14T07:11:10;4.90;99.90
27848;DHT22;15212;48.830;8.730;2024-02-14T07:13:39;4.90;99.90
27848;DHT22;15212;48.830;8.730;2024-02-14T07:16:07;5.00;99.90
27848;DHT22;15212;48.830;8.730;2024-02-14T07:18:35;5.10;99.90
27848;DHT22;15212;48.830;8.730;2024-02-14T07:21:04;5.20;99.90
27848;DHT22;15212;48.830;8.730;2024-02-14T07:23:33;5.30;99.90
27848;DHT22;15212;48.830;8.730;2024-02-14T07:26:01;5.40;99.90
27848;DHT22;15212;48.830;8.730;2024-02-14T07:28:30;5.50;99.90
27848;DHT22;15212;48.830;8.730;2024-02-14T07:30:58;5.60;99.90
27848;DHT22;15212;48.830;8.730;2024-02-14T07:33:27;5.70;99.90
27848;DHT22;15212;48.830;8.730;2024-02-14T07:35:55;5.80;99.90
27848;DHT22;15212;48.830;8.730;2024-02-14T07:38:23;6.00;99.90
27848;DHT22;15212;48.830;8.730;2024-02-14T07:40:52;6.10;99.90
27848;DHT22;15212;48.830;8.730;2024-02-14T07:43:21;6.30;99.90
27848;DHT22;15212;48.830;8.730;2024-02-14T07:45:49;6.50;99.90
27848;DHT22;15212;48.830;8.730;2024-02-14T07:48:17;6.60;99.90
27848;DHT22;15212;48.830;8.730;2024-02-14T07:50:46;6.70;99.90
27848;DHT22;15212;48.830;8.730;2024-02-14T07:53:14;6.80;99.90
27848;DHT22;15212;48.830;8.730;2024-02-14T07:55:42;6.90;99.90
27848;DHT22;15212;48.830;8.730;2024-02-14T07:58:11;6.90;99.90
27848;DHT22;15212;48.830;8.730;2024-02-14T08:00:39;6.90;99.90
27848;DHT22;15212;48.830;8.730;2024-02-14T08:03:07;7.00;99.90
27848;DHT22;15212;48.830;8.730;2024-02-14T08:05:36;7.00;99.90
27848;DHT22;15212;48.830;8.730;2024-02-14T08:08:04;7.10;99.90
27848;DHT22;15212;48.830;8.730;2024-02-14T08:10:33;7.10;99.90
27848;DHT22;15212;48.830;8.730;2024-02-14T08:13:01;7.20;99.90
27848;DHT22;15212;48.830;8.730;2024-02-14T08:15:31;7.30;99.90
27848;DHT22;15212;48.830;8.730;2024-02-14T08:17:59;7.30;99.90
27848;DHT22;15212;48.830;8.730;2024-02-14T08:20:28;7.40;99.90
27848;DHT22;15212;48.830;8.730;2024-02-14T08:22:56;7.50;99.90
27848;DHT22;15212;48.830;8.730;2024-02-14T08:25:24;7.50;99.90
27848;DHT22;15212;48.830;8.730;2024-02-14T08:27:53;7.60;99.90
27848;DHT22;15212;48.830;8.730;2024-02-14T08:30:21;7.60;99.90
27848;DHT22;15212;48.830;8.730;2024-02-14T08:32:50;7.70;99.90
27848;DHT22;15212;48.830;8.730;2024-02-14T08:35:18;7.70;99.90
27848;DHT22;15212;48.830;8.730;2024-02-14T08:37:48;7.80;99.90
27848;DHT22;15212;48.830;8.730;2024-02-14T08:40:16;7.80;99.90
27848;DHT22;15212;48.830;8.730;2024-02-14T08:42:44;7.90;99.90
27848;DHT22;15212;48.830;8.730;2024-02-14T08:45:13;7.80;99.90
27848;DHT22;15212;48.830;8.730;2024-02-14T08:47:44;7.90;99.90
27848;DHT22;15212;48.830;8.730;2024-02-14T08:50:12;7.90;99.90
27848;DHT22;15212;48.830;8.730;2024-02-14T08:52:40;7.90;99.90
27848;DHT22;15212;48.830;8.730;2024-02-14T08:55:09;7.90;99.90
27848;DHT22;15212;48.830;8.730;2024-02-14T08:57:39;7.90;99.90
27848;DHT22;15212;48.830;8.730;2024-02-14T09:00:08;7.90;99.90
27848;DHT22;15212;48.830;8.730;2024-02-14T09:02:37;8.00;99.90
27848;DHT22;15212;48.830;8.730;2024-02-14T09:05:06;8.10;99.90
27848;DHT22;15212;48.830;8.730;2024-02-14T09:07:36;8.10;99.90
27848;DHT22;15212;48.830;8.730;2024-02-14T09:10:04;8.20;99.90
27848;DHT22;15212;48.830;8.730;2024-02-14T09:12:33;8.30;99.90
27848;DHT22;15212;48.830;8.730;2024-02-14T09:15:01;8.30;99.90
27848;DHT22;15212;48.830;8.730;2024-02-14T09:17:31;8.30;99.90
27848;DHT22;15212;48.830;8.730;2024-02-14T09:20:00;8.40;99.90
27848;DHT22;15212;48.830;8.730;2024-02-14T09:22:29;8.40;99.90
27848;DHT22;15212;48.830;8.730;2024-02-14T09:24:58;8.50;99.90
27848;DHT22;15212;48.830;8.730;2024-02-14T09:27:26;8.60;99.90
27848;DHT22;15212;48.830;8.730;2024-02-14T09:29:55;8.70;99.90
27848;DHT22;15212;48.830;8.730;2024-02-14T09:32:23;8.90;99.90
27848;DHT22;15212;48.830;8.730;2024-02-14T09:34:52;9.00;99.90
27848;DHT22;15212;48.830;8.730;2024-02-14T09:37:20;9.20;99.90
27848;DHT22;15212;48.830;8.730;2024-02-14T09:39:49;9.30;99.90
27848;DHT22;15212;48.830;8.730;2024-02-14T09:42:19;9.50;99.90
27848;DHT22;15212;48.830;8.730;2024-02-14T09:44:53;9.70;99.90
27848;DHT22;15212;48.830;8.730;2024-02-14T09:47:25;9.90;99.90
27848;DHT22;15212;48.830;8.730;2024-02-14T09:49:56;10.10;99.90
27848;DHT22;15212;48.830;8.730;2024-02-14T09:52:25;10.10;99.90
27848;DHT22;15212;48.830;8.730;2024-02-14T09:54:55;10.20;99.90
27848;DHT22;15212;48.830;8.730;2024-02-14T09:57:24;10.30;99.90
27848;DHT22;15212;48.830;8.730;2024-02-14T09:59:55;10.40;99.90
27848;DHT22;15212;48.830;8.730;2024-02-14T10:02:25;10.50;99.90
27848;DHT22;15212;48.830;8.730;2024-02-14T10:04:53;10.70;99.90
27848;DHT22;15212;48.830;8.730;2024-02-14T10:07:21;10.90;99.90
27848;DHT22;15212;48.830;8.730;2024-02-14T10:09:50;11.00;99.90
27848;DHT22;15212;48.830;8.730;2024-02-14T10:12:19;11.00;99.90
27848;DHT22;15212;48.830;8.730;2024-02-14T10:14:47;11.10;99.90
27848;DHT22;15212;48.830;8.730;2024-02-14T10:17:21;11.10;99.90
27848;DHT22;15212;48.830;8.730;2024-02-14T10:19:57;11.10;99.90
27848;DHT22;15212;48.830;8.730;2024-02-14T10:22:36;11.00;99.90
27848;DHT22;15212;48.830;8.730;2024-02-14T10:25:06;11.00;99.90
27848;DHT22;15212;48.830;8.730;2024-02-14T10:27:39;10.90;99.90
27848;DHT22;15212;48.830;8.730;2024-02-14T10:30:08;10.90;99.90
27848;DHT22;15212;48.830;8.730;2024-02-14T10:32:37;10.80;99.90
27848;DHT22;15212;48.830;8.730;2024-02-14T10:35:14;10.70;99.90
27848;DHT22;15212;48.830;8.730;2024-02-14T10:37:44;10.60;99.90
27848;DHT22;15212;48.830;8.730;2024-02-14T10:40:13;10.50;99.90
27848;DHT22;15212;48.830;8.730;2024-02-14T10:42:42;10.50;99.90
27848;DHT22;15212;48.830;8.730;2024-02-14T10:45:10;10.40;99.90
27848;DHT22;15212;48.830;8.730;2024-02-14T10:47:42;10.40;99.90
27848;DHT22;15212;48.830;8.730;2024-02-14T10:50:12;10.40;99.90
27848;DHT22;15212;48.830;8.730;2024-02-14T10:52:41;10.30;99.90
27848;DHT22;15212;48.830;8.730;2024-02-14T10:55:11;10.20;99.90
27848;DHT22;15212;48.830;8.730;2024-02-14T10:57:41;10.20;99.90
27848;DHT22;15212;48.830;8.730;2024-02-14T11:00:14;10.10;99.90
27848;DHT22;15212;48.830;8.730;2024-02-14T11:02:44;10.00;99.90
27848;DHT22;15212;48.830;8.730;2024-02-14T11:05:14;10.00;99.90
27848;DHT22;15212;48.830;8.730;2024-02-14T11:07:46;10.00;99.90
27848;DHT22;15212;48.830;8.730;2024-02-14T11:10:17;9.90;99.90
27848;DHT22;15212;48.830;8.730;2024-02-14T11:12:49;10.00;99.90
27848;DHT22;15212;48.830;8.730;2024-02-14T11:15:20;10.00;99.90
27848;DHT22;15212;48.830;8.730;2024-02-14T11:18:03;10.00;99.90
27848;DHT22;15212;48.830;8.730;2024-02-14T11:20:37;10.00;99.90
27848;DHT22;15212;48.830;8.730;2024-02-14T11:23:08;10.10;99.90
27848;DHT22;15212;48.830;8.730;2024-02-14T11:25:38;10.20;99.90
27848;DHT22;15212;48.830;8.730;2024-02-14T11:28:14;10.20;99.90
27848;DHT22;15212;48.830;8.730;2024-02-14T11:30:46;10.30;99.90
27848;DHT22;15212;48.830;8.730;2024-02-14T11:33:19;10.30;99.90
27848;DHT22;15212;48.830;8.730;2024-02-14T11:35:50;10.30;99.90
27848;DHT22;15212;48.830;8.730;2024-02-14T11:38:24;10.40;99.90
27848;DHT22;15212;48.830;8.730;2024-02-14T11:40:56;10.50;99.90
27848;DHT22;15212;48.830;8.730;2024-02-14T11:43:24;10.50;99.90
27848;DHT22;15212;48.830;8.730;2024-02-14T11:45:53;10.60;99.90
27848;DHT22;15212;48.830;8.730;2024-02-14T11:48:22;10.70;99.90
27848;DHT22;15212;48.830;8.730;2024-02-14T11:50:53;10.80;99.90
27848;DHT22;15212;48.830;8.730;2024-02-14T11:53:22;10.80;99.90
27848;DHT22;15212;48.830;8.730;2024-02-14T11:55:50;10.80;99.90
27848;DHT22;15212;48.830;8.730;2024-02-14T11:58:19;10.90;99.90
27848;DHT22;15212;48.830;8.730;2024-02-14T12:00:48;10.90;99.90
27848;DHT22;15212;48.830;8.730;2024-02-14T12:03:21;11.00;99.90
27848;DHT22;15212;48.830;8.730;2024-02-14T12:05:51;11.00;99.90
27848;DHT22;15212;48.830;8.730;2024-02-14T12:08:20;11.00;99.90
27848;DHT22;15212;48.830;8.730;2024-02-14T12:10:49;11.10;99.90
27848;DHT22;15212;48.830;8.730;2024-02-14T12:13:37;11.10;99.90
27848;DHT22;15212;48.830;8.730;2024-02-14T12:16:08;11.20;99.90
27848;DHT22;15212;48.830;8.730;2024-02-14T12:18:37;11.30;99.90
27848;DHT22;15212;48.830;8.730;2024-02-14T12:21:06;11.30;99.90
27848;DHT22;15212;48.830;8.730;2024-02-14T12:23:35;11.40;99.90
27848;DHT22;15212;48.830;8.730;2024-02-14T12:26:05;11.50;99.90
27848;DHT22;15212;48.830;8.730;2024-02-14T12:28:34;11.50;99.90
27848;DHT22;15212;48.830;8.730;2024-02-14T12:31:03;11.50;99.90
27848;DHT22;15212;48.830;8.730;2024-02-14T12:33:32;11.60;99.90
27848;DHT22;15212;48.830;8.730;2024-02-14T12:36:01;11.70;99.90
27848;DHT22;15212;48.830;8.730;2024-02-14T12:38:30;11.70;99.90
27848;DHT22;15212;48.830;8.730;2024-02-14T12:40:59;11.80;99.90
27848;DHT22;15212;48.830;8.730;2024-02-14T12:43:28;11.90;99.90
27848;DHT22;15212;48.830;8.730;2024-02-14T12:45:57;12.10;99.90
27848;DHT22;15212;48.830;8.730;2024-02-14T12:48:25;12.30;99.90
27848;DHT22;15212;48.830;8.730;2024-02-14T12:50:54;12.40;99.90
27848;DHT22;15212;48.830;8.730;2024-02-14T12:53:23;12.50;99.90
27848;DHT22;15212;48.830;8.730;2024-02-14T12:55:53;12.50;99.90
27848;DHT22;15212;48.830;8.730;2024-02-14T12:58:21;12.50;99.90
27848;DHT22;15212;48.830;8.730;2024-02-14T13:00:50;12.50;99.90
27848;DHT22;15212;48.830;8.730;2024-02-14T13:03:18;12.60;99.90
27848;DHT22;15212;48.830;8.730;2024-02-14T13:05:48;12.60;99.90
27848;DHT22;15212;48.830;8.730;2024-02-14T13:08:17;12.70;99.90
27848;DHT22;15212;48.830;8.730;2024-02-14T13:10:46;12.60;99.90
27848;DHT22;15212;48.830;8.730;2024-02-14T13:13:14;12.60;99.90
27848;DHT22;15212;48.830;8.730;2024-02-14T13:15:43;12.50;99.90
27848;DHT22;15212;48.830;8.730;2024-02-14T13:18:11;12.50;99.90
27848;DHT22;15212;48.830;8.730;2024-02-14T13:20:40;12.60;99.90
27848;DHT22;15212;48.830;8.730;2024-02-14T13:23:10;12.60;99.90
27848;DHT22;15212;48.830;8.730;2024-02-14T13:25:40;12.50;99.90
27848;DHT22;15212;48.830;8.730;2024-02-14T13:28:09;12.50;99.90
27848;DHT22;15212;48.830;8.730;2024-02-14T13:30:37;12.50;99.90
27848;DHT22;15212;48.830;8.730;2024-02-14T13:33:06;12.40;99.90
27848;DHT22;15212;48.830;8.730;2024-02-14T13:35:36;12.30;99.90
27848;DHT22;15212;48.830;8.730;2024-02-14T13:38:06;12.30;99.90
27848;DHT22;15212;48.830;8.730;2024-02-14T13:40:36;12.20;99.90
27848;DHT22;15212;48.830;8.730;2024-02-14T13:43:04;12.10;99.90
27848;DHT22;15212;48.830;8.730;2024-02-14T13:45:43;12.10;99.90
27848;DHT22;15212;48.830;8.730;2024-02-14T13:48:13;12.10;99.90
27848;DHT22;15212;48.830;8.730;2024-02-14T13:50:41;12.10;99.90
27848;DHT22;15212;48.830;8.730;2024-02-14T13:53:09;12.20;99.90
27848;DHT22;15212;48.830;8.730;2024-02-14T13:55:38;12.30;99.90
27848;DHT22;15212;48.830;8.730;2024-02-14T13:58:07;12.30;99.90
27848;DHT22;15212;48.830;8.730;2024-02-14T14:00:37;12.40;99.90
27848;DHT22;15212;48.830;8.730;2024-02-14T14:03:05;12.40;99.90
27848;DHT22;15212;48.830;8.730;2024-02-14T14:05:34;12.40;99.90
27848;DHT22;15212;48.830;8.730;2024-02-14T14:08:02;12.40;99.90
27848;DHT22;15212;48.830;8.730;2024-02-14T14:10:31;12.30;99.90
27848;DHT22;15212;48.830;8.730;2024-02-14T14:12:59;12.30;99.90
27848;DHT22;15212;48.830;8.730;2024-02-14T14:15:27;12.30;99.90
27848;DHT22;15212;48.830;8.730;2024-02-14T14:17:57;12.30;99.90
27848;DHT22;15212;48.830;8.730;2024-02-14T14:20:26;12.20;99.90
27848;DHT22;15212;48.830;8.730;2024-02-14T14:22:54;12.20;99.90
27848;DHT22;15212;48.830;8.730;2024-02-14T14:25:23;12.10;99.90
27848;DHT22;15212;48.830;8.730;2024-02-14T14:27:51;12.10;99.90
27848;DHT22;15212;48.830;8.730;2024-02-14T14:30:20;12.10;99.90
27848;DHT22;15212;48.830;8.730;2024-02-14T14:32:48;12.10;99.90
27848;DHT22;15212;48.830;8.730;2024-02-14T14:35:16;12.10;99.90
27848;DHT22;15212;48.830;8.730;2024-02-14T14:37:46;12.00;99.90
27848;DHT22;15212;48.830;8.730;2024-02-14T14:40:14;12.00;99.90
27848;DHT22;15212;48.830;8.730;2024-02-14T14:42:43;12.00;99.90
27848;DHT22;15212;48.830;8.730;2024-02-14T14:45:12;12.00;99.90
27848;DHT22;15212;48.830;8.730;2024-02-14T14:47:40;12.00;99.90
27848;DHT22;15212;48.830;8.730;2024-02-14T14:50:09;12.10;99.90
27848;DHT22;15212;48.830;8.730;2024-02-14T14:52:39;12.10;99.90
27848;DHT22;15212;48.830;8.730;2024-02-14T14:55:08;12.10;99.90
27848;DHT22;15212;48.830;8.730;2024-02-14T14:57:36;12.10;99.90
27848;DHT22;15212;48.830;8.730;2024-02-14T15:00:08;12.10;99.90
27848;DHT22;15212;48.830;8.730;2024-02-14T15:02:40;12.00;99.90
27848;DHT22;15212;48.830;8.730;2024-02-14T15:05:12;12.00;99.90
27848;DHT22;15212;48.830;8.730;2024-02-14T15:07:42;11.90;99.90
27848;DHT22;15212;48.830;8.730;2024-02-14T15:10:11;11.90;99.90
27848;DHT22;15212;48.830;8.730;2024-02-14T15:12:39;11.90;99.90
27848;DHT22;15212;48.830;8.730;2024-02-14T15:15:08;11.80;99.90
27848;DHT22;15212;48.830;8.730;2024-02-14T15:17:36;11.80;99.90
27848;DHT22;15212;48.830;8.730;2024-02-14T15:20:06;11.80;99.90
27848;DHT22;15212;48.830;8.730;2024-02-14T15:22:34;11.80;99.90
27848;DHT22;15212;48.830;8.730;2024-02-14T15:25:03;11.70;99.90
27848;DHT22;15212;48.830;8.730;2024-02-14T15:27:32;11.70;99.90
27848;DHT22;15212;48.830;8.730;2024-02-14T15:30:02;11.70;99.90
27848;DHT22;15212;48.830;8.730;2024-02-14T15:32:50;11.60;99.90
27848;DHT22;15212;48.830;8.730;2024-02-14T15:35:37;11.60;99.90
27848;DHT22;15212;48.830;8.730;2024-02-14T15:38:05;11.60;99.90
27848;DHT22;15212;48.830;8.730;2024-02-14T15:40:33;11.60;99.90
27848;DHT22;15212;48.830;8.730;2024-02-14T15:43:02;11.50;99.90
27848;DHT22;15212;48.830;8.730;2024-02-14T15:45:30;11.50;99.90
27848;DHT22;15212;48.830;8.730;2024-02-14T15:47:59;11.50;99.90
27848;DHT22;15212;48.830;8.730;2024-02-14T15:50:27;11.50;99.90
27848;DHT22;15212;48.830;8.730;2024-02-14T15:52:56;11.50;99.90